sensor_id;sensor_type;location;lat;lon;timestamp;P1;durP1;ratioP1;P2;durP2;ratioP2
23266;SDS011;11802;53.160;8.214;2022-10-31T00:01:30;47.93;;;26.70;;
23266;SDS011;11802;53.160;8.214;2022-10-31T00:04:03;48.27;;;27.20;;
23266;SDS011;11802;53.160;8.214;2022-10-31T00:06:30;44.30;;;27.60;;
23266;SDS011;11802;53.160;8.214;2022-10-31T00:08:57;41.20;;;26.17;;
23266;SDS011;11802;53.160;8.214;2022-10-31T00:11:24;42.00;;;25.10;;
23266;SDS011;11802;53.160;8.214;2022-10-31T00:13:50;41.33;;;24.93;;
23266;SDS011;11802;53.160;8.214;2022-10-31T00:16:18;43.73;;;23.70;;
23266;SDS011;11802;53.160;8.214;2022-10-31T00:18:47;44.10;;;27.13;;
23266;SDS011;11802;53.160;8.214;2022-10-31T00:21:14;47.27;;;24.87;;
23266;SDS011;11802;53.160;8.214;2022-10-31T00:23:40;38.20;;;24.40;;
23266;SDS011;11802;53.160;8.214;2022-10-31T00:26:08;44.40;;;25.90;;
23266;SDS011;11802;53.160;8.214;2022-10-31T00:28:34;52.37;;;26.97;;
23266;SDS011;11802;53.160;8.214;2022-10-31T00:31:00;45.13;;;26.57;;
23266;SDS011;11802;53.160;8.214;2022-10-31T00:33:27;41.53;;;25.40;;
23266;SDS011;11802;53.160;8.214;2022-10-31T00:35:53;48.43;;;26.10;;
23266;SDS011;11802;53.160;8.214;2022-10-31T00:38:19;44.80;;;25.23;;
23266;SDS011;11802;53.160;8.214;2022-10-31T00:40:45;38.30;;;23.80;;
23266;SDS011;11802;53.160;8.214;2022-10-31T00:43:10;43.40;;;24.13;;
23266;SDS011;11802;53.160;8.214;2022-10-31T00:45:36;43.70;;;25.20;;
23266;SDS011;11802;53.160;8.214;2022-10-31T00:48:01;46.03;;;25.23;;
23266;SDS011;11802;53.160;8.214;2022-10-31T00:50:28;42.77;;;25.37;;
23266;SDS011;11802;53.160;8.214;2022-10-31T00:52:54;45.73;;;24.47;;
23266;SDS011;11802;53.160;8.214;2022-10-31T00:55:19;39.43;;;24.40;;
23266;SDS011;11802;53.160;8.214;2022-10-31T00:57:48;46.27;;;24.53;;
23266;SDS011;11802;53.160;8.214;2022-10-31T01:00:14;42.53;;;25.97;;
23266;SDS011;11802;53.160;8.214;2022-10-31T01:02:40;46.00;;;25.37;;
23266;SDS011;11802;53.160;8.214;2022-10-31T01:05:05;40.70;;;24.60;;
23266;SDS011;11802;53.160;8.214;2022-10-31T01:07:31;42.80;;;26.10;;
23266;SDS011;11802;53.160;8.214;2022-10-31T01:10:00;41.60;;;26.67;;
23266;SDS011;11802;53.160;8.214;2022-10-31T01:12:28;49.50;;;27.03;;
23266;SDS011;11802;53.160;8.214;2022-10-31T01:14:54;47.93;;;25.90;;
23266;SDS011;11802;53.160;8.214;2022-10-31T01:17:19;43.30;;;25.30;;
23266;SDS011;11802;53.160;8.214;2022-10-31T01:19:45;47.93;;;26.00;;
23266;SDS011;11802;53.160;8.214;2022-10-31T01:22:10;49.50;;;26.10;;
23266;SDS011;11802;53.160;8.214;2022-10-31T01:24:36;47.10;;;27.40;;
23266;SDS011;11802;53.160;8.214;2022-10-31T01:27:01;45.10;;;27.07;;
23266;SDS011;11802;53.160;8.214;2022-10-31T01:29:27;40.03;;;24.20;;
23266;SDS011;11802;53.160;8.214;2022-10-31T01:31:53;50.63;;;27.37;;
23266;SDS011;11802;53.160;8.214;2022-10-31T01:34:18;47.30;;;27.07;;
23266;SDS011;11802;53.160;8.214;2022-10-31T01:36:44;44.43;;;26.43;;
23266;SDS011;11802;53.160;8.214;2022-10-31T01:39:16;55.57;;;27.67;;
23266;SDS011;11802;53.160;8.214;2022-10-31T01:41:45;46.80;;;27.83;;
23266;SDS011;11802;53.160;8.214;2022-10-31T01:46:43;43.40;;;27.30;;
23266;SDS011;11802;53.160;8.214;2022-10-31T01:49:28;44.17;;;26.97;;
23266;SDS011;11802;53.160;8.214;2022-10-31T01:52:03;47.33;;;26.97;;
23266;SDS011;11802;53.160;8.214;2022-10-31T01:54:39;56.43;;;27.67;;
23266;SDS011;11802;53.160;8.214;2022-10-31T01:57:08;52.60;;;28.83;;
23266;SDS011;11802;53.160;8.214;2022-10-31T01:59:38;53.57;;;30.63;;
23266;SDS011;11802;53.160;8.214;2022-10-31T02:02:07;56.40;;;30.97;;
23266;SDS011;11802;53.160;8.214;2022-10-31T02:04:33;52.13;;;29.10;;
23266;SDS011;11802;53.160;8.214;2022-10-31T02:07:10;48.50;;;29.40;;
23266;SDS011;11802;53.160;8.214;2022-10-31T02:09:39;55.90;;;29.57;;
23266;SDS011;11802;53.160;8.214;2022-10-31T02:12:05;55.07;;;30.03;;
23266;SDS011;11802;53.160;8.214;2022-10-31T02:14:34;51.80;;;30.20;;
23266;SDS011;11802;53.160;8.214;2022-10-31T02:17:06;50.87;;;28.53;;
23266;SDS011;11802;53.160;8.214;2022-10-31T02:25:11;54.27;;;29.00;;
23266;SDS011;11802;53.160;8.214;2022-10-31T02:30:20;51.17;;;28.37;;
23266;SDS011;11802;53.160;8.214;2022-10-31T02:32:54;49.90;;;28.57;;
23266;SDS011;11802;53.160;8.214;2022-10-31T02:46:35;50.77;;;28.00;;
23266;SDS011;11802;53.160;8.214;2022-10-31T02:49:07;47.77;;;26.77;;
23266;SDS011;11802;53.160;8.214;2022-10-31T02:51:39;49.27;;;28.37;;
23266;SDS011;11802;53.160;8.214;2022-10-31T02:54:05;51.27;;;28.23;;
23266;SDS011;11802;53.160;8.214;2022-10-31T02:56:40;53.80;;;27.63;;
23266;SDS011;11802;53.160;8.214;2022-10-31T02:59:08;44.27;;;26.23;;
23266;SDS011;11802;53.160;8.214;2022-10-31T03:10:14;51.37;;;26.60;;
23266;SDS011;11802;53.160;8.214;2022-10-31T03:12:54;50.03;;;27.87;;
23266;SDS011;11802;53.160;8.214;2022-10-31T03:15:33;49.00;;;27.27;;
23266;SDS011;11802;53.160;8.214;2022-10-31T03:20:30;47.93;;;27.13;;
23266;SDS011;11802;53.160;8.214;2022-10-31T03:23:19;50.83;;;26.87;;
23266;SDS011;11802;53.160;8.214;2022-10-31T03:25:47;48.73;;;26.73;;
23266;SDS011;11802;53.160;8.214;2022-10-31T03:28:14;53.80;;;27.17;;
23266;SDS011;11802;53.160;8.214;2022-10-31T03:30:43;55.93;;;29.87;;
23266;SDS011;11802;53.160;8.214;2022-10-31T03:33:11;58.87;;;30.17;;
23266;SDS011;11802;53.160;8.214;2022-10-31T03:35:42;64.30;;;32.43;;
23266;SDS011;11802;53.160;8.214;2022-10-31T03:38:11;60.47;;;30.80;;
23266;SDS011;11802;53.160;8.214;2022-10-31T03:40:38;64.67;;;32.17;;
23266;SDS011;11802;53.160;8.214;2022-10-31T03:43:08;61.60;;;30.23;;
23266;SDS011;11802;53.160;8.214;2022-10-31T03:45:44;70.03;;;29.23;;
23266;SDS011;11802;53.160;8.214;2022-10-31T03:48:15;55.53;;;27.83;;
23266;SDS011;11802;53.160;8.214;2022-10-31T03:51:46;58.87;;;27.37;;
23266;SDS011;11802;53.160;8.214;2022-10-31T03:56:53;60.63;;;29.43;;
23266;SDS011;11802;53.160;8.214;2022-10-31T04:02:20;62.53;;;29.93;;
23266;SDS011;11802;53.160;8.214;2022-10-31T04:04:50;59.77;;;30.87;;
23266;SDS011;11802;53.160;8.214;2022-10-31T04:07:16;54.53;;;29.63;;
23266;SDS011;11802;53.160;8.214;2022-10-31T04:09:44;94.17;;;32.90;;
23266;SDS011;11802;53.160;8.214;2022-10-31T04:12:13;50.47;;;29.03;;
23266;SDS011;11802;53.160;8.214;2022-10-31T04:14:41;102.90;;;31.33;;
23266;SDS011;11802;53.160;8.214;2022-10-31T04:17:12;69.33;;;29.07;;
23266;SDS011;11802;53.160;8.214;2022-10-31T04:19:40;52.47;;;26.00;;
23266;SDS011;11802;53.160;8.214;2022-10-31T04:22:05;45.57;;;27.00;;
23266;SDS011;11802;53.160;8.214;2022-10-31T04:24:31;54.10;;;26.87;;
23266;SDS011;11802;53.160;8.214;2022-10-31T04:26:57;91.80;;;25.93;;
23266;SDS011;11802;53.160;8.214;2022-10-31T04:29:22;73.00;;;25.43;;
23266;SDS011;11802;53.160;8.214;2022-10-31T04:31:48;49.27;;;24.47;;
23266;SDS011;11802;53.160;8.214;2022-10-31T04:34:13;58.00;;;22.13;;
23266;SDS011;11802;53.160;8.214;2022-10-31T04:36:39;53.33;;;23.17;;
23266;SDS011;11802;53.160;8.214;2022-10-31T04:39:04;45.60;;;24.07;;
23266;SDS011;11802;53.160;8.214;2022-10-31T04:41:30;62.90;;;25.87;;
23266;SDS011;11802;53.160;8.214;2022-10-31T04:43:55;42.57;;;23.40;;
23266;SDS011;11802;53.160;8.214;2022-10-31T04:46:21;74.80;;;25.50;;
23266;SDS011;11802;53.160;8.214;2022-10-31T04:48:46;56.77;;;23.83;;
23266;SDS011;11802;53.160;8.214;2022-10-31T04:51:12;37.30;;;25.10;;
23266;SDS011;11802;53.160;8.214;2022-10-31T04:53:38;36.97;;;24.83;;
23266;SDS011;11802;53.160;8.214;2022-10-31T04:56:03;39.70;;;23.43;;
23266;SDS011;11802;53.160;8.214;2022-10-31T04:58:29;40.00;;;24.37;;
23266;SDS011;11802;53.160;8.214;2022-10-31T05:00:55;34.97;;;24.20;;
23266;SDS011;11802;53.160;8.214;2022-10-31T05:03:21;40.33;;;24.30;;
23266;SDS011;11802;53.160;8.214;2022-10-31T05:05:47;48.57;;;24.03;;
23266;SDS011;11802;53.160;8.214;2022-10-31T05:08:13;49.03;;;24.67;;
23266;SDS011;11802;53.160;8.214;2022-10-31T05:10:39;53.07;;;24.83;;
23266;SDS011;11802;53.160;8.214;2022-10-31T05:13:04;43.43;;;23.43;;
23266;SDS011;11802;53.160;8.214;2022-10-31T05:15:30;51.53;;;23.53;;
23266;SDS011;11802;53.160;8.214;2022-10-31T05:17:56;51.73;;;24.13;;
23266;SDS011;11802;53.160;8.214;2022-10-31T05:20:24;48.13;;;22.90;;
23266;SDS011;11802;53.160;8.214;2022-10-31T05:22:52;48.83;;;23.00;;
23266;SDS011;11802;53.160;8.214;2022-10-31T05:25:20;48.97;;;27.07;;
23266;SDS011;11802;53.160;8.214;2022-10-31T05:27:48;43.03;;;24.77;;
23266;SDS011;11802;53.160;8.214;2022-10-31T05:30:16;55.10;;;27.37;;
23266;SDS011;11802;53.160;8.214;2022-10-31T05:32:47;47.33;;;25.03;;
23266;SDS011;11802;53.160;8.214;2022-10-31T05:35:15;42.87;;;25.33;;
23266;SDS011;11802;53.160;8.214;2022-10-31T05:37:45;44.37;;;25.73;;
23266;SDS011;11802;53.160;8.214;2022-10-31T05:40:12;55.33;;;25.97;;
23266;SDS011;11802;53.160;8.214;2022-10-31T05:42:39;45.33;;;25.40;;
23266;SDS011;11802;53.160;8.214;2022-10-31T05:45:06;36.23;;;25.20;;
23266;SDS011;11802;53.160;8.214;2022-10-31T05:47:32;36.60;;;24.83;;
23266;SDS011;11802;53.160;8.214;2022-10-31T05:49:58;38.80;;;24.23;;
23266;SDS011;11802;53.160;8.214;2022-10-31T05:52:23;41.17;;;25.80;;
23266;SDS011;11802;53.160;8.214;2022-10-31T05:54:49;49.50;;;26.17;;
23266;SDS011;11802;53.160;8.214;2022-10-31T05:57:14;37.20;;;24.43;;
23266;SDS011;11802;53.160;8.214;2022-10-31T05:59:40;45.60;;;23.53;;
23266;SDS011;11802;53.160;8.214;2022-10-31T06:02:05;48.90;;;25.30;;
23266;SDS011;11802;53.160;8.214;2022-10-31T06:04:31;35.90;;;23.97;;
23266;SDS011;11802;53.160;8.214;2022-10-31T06:06:56;42.60;;;25.87;;
23266;SDS011;11802;53.160;8.214;2022-10-31T06:09:22;36.73;;;24.67;;
23266;SDS011;11802;53.160;8.214;2022-10-31T06:11:48;36.30;;;24.30;;
23266;SDS011;11802;53.160;8.214;2022-10-31T06:14:13;33.00;;;23.47;;
23266;SDS011;11802;53.160;8.214;2022-10-31T06:16:39;59.03;;;25.20;;
23266;SDS011;11802;53.160;8.214;2022-10-31T06:19:04;35.33;;;23.10;;
23266;SDS011;11802;53.160;8.214;2022-10-31T06:21:30;39.37;;;24.97;;
23266;SDS011;11802;53.160;8.214;2022-10-31T06:23:55;31.47;;;23.90;;
23266;SDS011;11802;53.160;8.214;2022-10-31T06:26:21;37.00;;;23.57;;
23266;SDS011;11802;53.160;8.214;2022-10-31T06:28:46;36.57;;;25.27;;
23266;SDS011;11802;53.160;8.214;2022-10-31T06:31:12;50.37;;;24.87;;
23266;SDS011;11802;53.160;8.214;2022-10-31T06:33:38;61.93;;;25.90;;
23266;SDS011;11802;53.160;8.214;2022-10-31T06:36:05;43.83;;;24.27;;
23266;SDS011;11802;53.160;8.214;2022-10-31T06:38:34;45.43;;;25.37;;
23266;SDS011;11802;53.160;8.214;2022-10-31T06:41:04;40.93;;;24.87;;
23266;SDS011;11802;53.160;8.214;2022-10-31T06:43:30;38.57;;;24.93;;
23266;SDS011;11802;53.160;8.214;2022-10-31T06:45:56;57.93;;;27.57;;
23266;SDS011;11802;53.160;8.214;2022-10-31T06:48:22;51.73;;;26.30;;
23266;SDS011;11802;53.160;8.214;2022-10-31T06:50:48;52.10;;;25.63;;
23266;SDS011;11802;53.160;8.214;2022-10-31T06:53:14;39.63;;;25.83;;
23266;SDS011;11802;53.160;8.214;2022-10-31T06:55:40;53.33;;;26.37;;
23266;SDS011;11802;53.160;8.214;2022-10-31T06:58:06;43.73;;;26.33;;
23266;SDS011;11802;53.160;8.214;2022-10-31T07:00:33;41.73;;;24.20;;
23266;SDS011;11802;53.160;8.214;2022-10-31T07:02:59;35.50;;;25.53;;
23266;SDS011;11802;53.160;8.214;2022-10-31T07:05:30;43.50;;;26.23;;
23266;SDS011;11802;53.160;8.214;2022-10-31T07:07:56;45.50;;;25.13;;
23266;SDS011;11802;53.160;8.214;2022-10-31T07:10:24;35.87;;;25.73;;
23266;SDS011;11802;53.160;8.214;2022-10-31T07:12:54;36.20;;;25.97;;
23266;SDS011;11802;53.160;8.214;2022-10-31T07:15:21;44.63;;;25.77;;
23266;SDS011;11802;53.160;8.214;2022-10-31T07:17:47;52.13;;;26.03;;
23266;SDS011;11802;53.160;8.214;2022-10-31T07:20:12;39.27;;;26.00;;
23266;SDS011;11802;53.160;8.214;2022-10-31T07:22:38;43.23;;;28.07;;
23266;SDS011;11802;53.160;8.214;2022-10-31T07:25:03;44.07;;;27.73;;
23266;SDS011;11802;53.160;8.214;2022-10-31T07:27:34;48.23;;;26.67;;
23266;SDS011;11802;53.160;8.214;2022-10-31T07:30:09;43.07;;;26.40;;
23266;SDS011;11802;53.160;8.214;2022-10-31T07:32:37;42.50;;;25.30;;
23266;SDS011;11802;53.160;8.214;2022-10-31T07:35:04;43.33;;;25.07;;
23266;SDS011;11802;53.160;8.214;2022-10-31T07:37:31;40.57;;;26.60;;
23266;SDS011;11802;53.160;8.214;2022-10-31T07:39:56;40.40;;;26.70;;
23266;SDS011;11802;53.160;8.214;2022-10-31T07:42:22;47.50;;;26.33;;
23266;SDS011;11802;53.160;8.214;2022-10-31T07:44:47;37.73;;;25.17;;
23266;SDS011;11802;53.160;8.214;2022-10-31T07:47:13;45.33;;;26.57;;
23266;SDS011;11802;53.160;8.214;2022-10-31T07:49:38;37.47;;;24.80;;
23266;SDS011;11802;53.160;8.214;2022-10-31T07:52:04;42.70;;;24.13;;
23266;SDS011;11802;53.160;8.214;2022-10-31T07:54:29;42.50;;;24.90;;
23266;SDS011;11802;53.160;8.214;2022-10-31T07:56:55;38.50;;;24.80;;
23266;SDS011;11802;53.160;8.214;2022-10-31T07:59:20;44.43;;;24.47;;
23266;SDS011;11802;53.160;8.214;2022-10-31T08:01:46;35.23;;;22.23;;
23266;SDS011;11802;53.160;8.214;2022-10-31T08:04:11;35.00;;;23.37;;
23266;SDS011;11802;53.160;8.214;2022-10-31T08:06:37;32.33;;;23.10;;
23266;SDS011;11802;53.160;8.214;2022-10-31T08:09:02;33.50;;;23.47;;
23266;SDS011;11802;53.160;8.214;2022-10-31T08:11:28;32.77;;;23.00;;
23266;SDS011;11802;53.160;8.214;2022-10-31T08:13:53;30.10;;;22.03;;
23266;SDS011;11802;53.160;8.214;2022-10-31T08:16:19;41.93;;;23.20;;
23266;SDS011;11802;53.160;8.214;2022-10-31T08:18:44;35.07;;;23.43;;
23266;SDS011;11802;53.160;8.214;2022-10-31T08:21:10;32.57;;;22.20;;
23266;SDS011;11802;53.160;8.214;2022-10-31T08:23:35;35.10;;;23.33;;
23266;SDS011;11802;53.160;8.214;2022-10-31T08:26:01;32.70;;;23.03;;
23266;SDS011;11802;53.160;8.214;2022-10-31T08:28:27;33.73;;;22.70;;
23266;SDS011;11802;53.160;8.214;2022-10-31T08:30:52;28.50;;;20.10;;
23266;SDS011;11802;53.160;8.214;2022-10-31T08:33:18;28.03;;;20.27;;
23266;SDS011;11802;53.160;8.214;2022-10-31T08:35:44;28.67;;;20.33;;
23266;SDS011;11802;53.160;8.214;2022-10-31T08:38:10;25.70;;;20.07;;
23266;SDS011;11802;53.160;8.214;2022-10-31T08:40:37;27.07;;;20.03;;
23266;SDS011;11802;53.160;8.214;2022-10-31T08:43:04;24.30;;;18.90;;
23266;SDS011;11802;53.160;8.214;2022-10-31T08:45:32;27.37;;;18.73;;
23266;SDS011;11802;53.160;8.214;2022-10-31T08:48:03;29.20;;;19.67;;
23266;SDS011;11802;53.160;8.214;2022-10-31T08:50:30;39.50;;;20.20;;
23266;SDS011;11802;53.160;8.214;2022-10-31T08:53:01;27.50;;;20.67;;
23266;SDS011;11802;53.160;8.214;2022-10-31T08:55:27;27.40;;;21.37;;
23266;SDS011;11802;53.160;8.214;2022-10-31T08:57:56;33.07;;;21.97;;
23266;SDS011;11802;53.160;8.214;2022-10-31T09:00:22;26.93;;;21.53;;
23266;SDS011;11802;53.160;8.214;2022-10-31T09:02:53;31.80;;;22.93;;
23266;SDS011;11802;53.160;8.214;2022-10-31T09:05:27;27.43;;;21.13;;
23266;SDS011;11802;53.160;8.214;2022-10-31T09:07:56;31.13;;;20.17;;
23266;SDS011;11802;53.160;8.214;2022-10-31T09:10:25;30.60;;;20.30;;
23266;SDS011;11802;53.160;8.214;2022-10-31T09:12:56;24.07;;;18.30;;
23266;SDS011;11802;53.160;8.214;2022-10-31T09:15:22;27.33;;;19.33;;
23266;SDS011;11802;53.160;8.214;2022-10-31T09:17:48;23.83;;;19.03;;
23266;SDS011;11802;53.160;8.214;2022-10-31T09:20:14;23.63;;;19.17;;
23266;SDS011;11802;53.160;8.214;2022-10-31T09:22:39;24.50;;;19.33;;
23266;SDS011;11802;53.160;8.214;2022-10-31T09:25:05;25.58;;;18.60;;
23266;SDS011;11802;53.160;8.214;2022-10-31T09:27:31;23.58;;;18.02;;
23266;SDS011;11802;53.160;8.214;2022-10-31T09:29:57;24.90;;;18.10;;
23266;SDS011;11802;53.160;8.214;2022-10-31T09:32:22;24.33;;;18.10;;
23266;SDS011;11802;53.160;8.214;2022-10-31T09:34:47;23.52;;;17.05;;
23266;SDS011;11802;53.160;8.214;2022-10-31T09:37:13;25.08;;;18.17;;
23266;SDS011;11802;53.160;8.214;2022-10-31T09:39:38;20.73;;;17.23;;
23266;SDS011;11802;53.160;8.214;2022-10-31T09:42:08;24.17;;;17.90;;
23266;SDS011;11802;53.160;8.214;2022-10-31T09:47:40;21.88;;;18.00;;
23266;SDS011;11802;53.160;8.214;2022-10-31T09:50:25;23.58;;;17.42;;
23266;SDS011;11802;53.160;8.214;2022-10-31T09:53:01;25.33;;;17.75;;
23266;SDS011;11802;53.160;8.214;2022-10-31T09:55:40;25.83;;;18.60;;
23266;SDS011;11802;53.160;8.214;2022-10-31T09:58:13;23.30;;;18.33;;
23266;SDS011;11802;53.160;8.214;2022-10-31T10:00:43;26.60;;;19.92;;
23266;SDS011;11802;53.160;8.214;2022-10-31T10:03:11;24.63;;;18.93;;
23266;SDS011;11802;53.160;8.214;2022-10-31T10:08:46;25.47;;;18.87;;
23266;SDS011;11802;53.160;8.214;2022-10-31T10:11:35;28.47;;;20.07;;
23266;SDS011;11802;53.160;8.214;2022-10-31T10:22:43;28.92;;;21.42;;
23266;SDS011;11802;53.160;8.214;2022-10-31T10:25:24;28.77;;;19.97;;
23266;SDS011;11802;53.160;8.214;2022-10-31T10:28:31;30.27;;;21.00;;
23266;SDS011;11802;53.160;8.214;2022-10-31T10:30:56;28.48;;;20.30;;
23266;SDS011;11802;53.160;8.214;2022-10-31T10:33:33;25.05;;;18.50;;
23266;SDS011;11802;53.160;8.214;2022-10-31T10:36:31;27.33;;;18.88;;
23266;SDS011;11802;53.160;8.214;2022-10-31T10:39:25;29.08;;;20.35;;
23266;SDS011;11802;53.160;8.214;2022-10-31T10:41:52;26.17;;;19.52;;
23266;SDS011;11802;53.160;8.214;2022-10-31T10:44:40;25.85;;;18.77;;
23266;SDS011;11802;53.160;8.214;2022-10-31T10:47:40;25.60;;;17.17;;
23266;SDS011;11802;53.160;8.214;2022-10-31T10:50:13;26.30;;;17.70;;
23266;SDS011;11802;53.160;8.214;2022-10-31T10:53:02;26.65;;;16.98;;
23266;SDS011;11802;53.160;8.214;2022-10-31T10:55:53;24.80;;;16.27;;
23266;SDS011;11802;53.160;8.214;2022-10-31T10:58:31;21.02;;;15.88;;
23266;SDS011;11802;53.160;8.214;2022-10-31T11:00:56;18.00;;;14.35;;
23266;SDS011;11802;53.160;8.214;2022-10-31T11:03:22;22.10;;;14.43;;
23266;SDS011;11802;53.160;8.214;2022-10-31T11:05:51;24.23;;;14.88;;
23266;SDS011;11802;53.160;8.214;2022-10-31T11:08:25;20.42;;;13.90;;
23266;SDS011;11802;53.160;8.214;2022-10-31T11:10:58;23.80;;;15.25;;
23266;SDS011;11802;53.160;8.214;2022-10-31T11:13:28;18.88;;;12.70;;
23266;SDS011;11802;53.160;8.214;2022-10-31T11:18:29;23.27;;;11.43;;
23266;SDS011;11802;53.160;8.214;2022-10-31T11:20:58;20.50;;;11.93;;
23266;SDS011;11802;53.160;8.214;2022-10-31T11:23:26;16.20;;;10.90;;
23266;SDS011;11802;53.160;8.214;2022-10-31T11:28:22;16.70;;;11.13;;
23266;SDS011;11802;53.160;8.214;2022-10-31T11:30:52;18.30;;;11.07;;
23266;SDS011;11802;53.160;8.214;2022-10-31T11:33:25;21.60;;;12.65;;
23266;SDS011;11802;53.160;8.214;2022-10-31T11:35:52;18.20;;;12.18;;
23266;SDS011;11802;53.160;8.214;2022-10-31T11:38:19;20.10;;;11.82;;
23266;SDS011;11802;53.160;8.214;2022-10-31T11:41:09;20.88;;;12.25;;
23266;SDS011;11802;53.160;8.214;2022-10-31T11:43:38;17.55;;;12.05;;
23266;SDS011;11802;53.160;8.214;2022-10-31T11:46:18;20.13;;;10.65;;
23266;SDS011;11802;53.160;8.214;2022-10-31T11:48:53;20.45;;;11.07;;
23266;SDS011;11802;53.160;8.214;2022-10-31T11:51:23;19.98;;;11.38;;
23266;SDS011;11802;53.160;8.214;2022-10-31T11:53:51;20.42;;;13.13;;
23266;SDS011;11802;53.160;8.214;2022-10-31T11:56:19;21.05;;;11.50;;
23266;SDS011;11802;53.160;8.214;2022-10-31T11:58:55;16.75;;;10.70;;
23266;SDS011;11802;53.160;8.214;2022-10-31T12:01:30;18.38;;;10.82;;
23266;SDS011;11802;53.160;8.214;2022-10-31T12:04:12;14.82;;;9.10;;
23266;SDS011;11802;53.160;8.214;2022-10-31T12:06:44;15.57;;;9.98;;
23266;SDS011;11802;53.160;8.214;2022-10-31T12:09:21;17.83;;;10.38;;
23266;SDS011;11802;53.160;8.214;2022-10-31T12:14:53;22.13;;;12.68;;
23266;SDS011;11802;53.160;8.214;2022-10-31T12:32:40;23.15;;;14.73;;
23266;SDS011;11802;53.160;8.214;2022-10-31T12:41:28;23.67;;;14.18;;
23266;SDS011;11802;53.160;8.214;2022-10-31T12:50:21;22.83;;;15.52;;
23266;SDS011;11802;53.160;8.214;2022-10-31T12:55:35;26.00;;;16.85;;
23266;SDS011;11802;53.160;8.214;2022-10-31T12:58:14;23.45;;;16.73;;
23266;SDS011;11802;53.160;8.214;2022-10-31T13:00:51;26.90;;;16.98;;
23266;SDS011;11802;53.160;8.214;2022-10-31T13:03:53;29.55;;;18.30;;
23266;SDS011;11802;53.160;8.214;2022-10-31T13:06:29;29.05;;;19.00;;
23266;SDS011;11802;53.160;8.214;2022-10-31T13:09:00;28.17;;;18.52;;
23266;SDS011;11802;53.160;8.214;2022-10-31T13:11:55;29.15;;;20.35;;
23266;SDS011;11802;53.160;8.214;2022-10-31T13:14:30;34.70;;;21.40;;
23266;SDS011;11802;53.160;8.214;2022-10-31T13:17:00;30.15;;;21.77;;
23266;SDS011;11802;53.160;8.214;2022-10-31T13:19:28;34.25;;;22.38;;
23266;SDS011;11802;53.160;8.214;2022-10-31T13:24:59;41.75;;;25.10;;
23266;SDS011;11802;53.160;8.214;2022-10-31T13:27:29;39.43;;;24.67;;
23266;SDS011;11802;53.160;8.214;2022-10-31T13:30:12;33.95;;;23.95;;
23266;SDS011;11802;53.160;8.214;2022-10-31T13:32:42;36.08;;;25.85;;
23266;SDS011;11802;53.160;8.214;2022-10-31T13:35:24;39.77;;;25.63;;
23266;SDS011;11802;53.160;8.214;2022-10-31T13:38:03;35.35;;;26.15;;
23266;SDS011;11802;53.160;8.214;2022-10-31T13:43:11;39.67;;;26.13;;
23266;SDS011;11802;53.160;8.214;2022-10-31T13:45:50;34.67;;;25.02;;
23266;SDS011;11802;53.160;8.214;2022-10-31T13:48:19;37.92;;;25.17;;
23266;SDS011;11802;53.160;8.214;2022-10-31T13:51:03;37.33;;;25.03;;
23266;SDS011;11802;53.160;8.214;2022-10-31T13:53:36;38.83;;;24.92;;
23266;SDS011;11802;53.160;8.214;2022-10-31T13:56:14;36.10;;;26.13;;
23266;SDS011;11802;53.160;8.214;2022-10-31T13:58:58;37.07;;;25.93;;
23266;SDS011;11802;53.160;8.214;2022-10-31T14:01:26;38.70;;;26.43;;
23266;SDS011;11802;53.160;8.214;2022-10-31T14:04:05;39.55;;;27.05;;
23266;SDS011;11802;53.160;8.214;2022-10-31T14:07:10;38.70;;;24.43;;
23266;SDS011;11802;53.160;8.214;2022-10-31T14:09:52;37.63;;;24.10;;
23266;SDS011;11802;53.160;8.214;2022-10-31T14:12:29;38.13;;;24.13;;
23266;SDS011;11802;53.160;8.214;2022-10-31T14:15:17;35.60;;;22.47;;
23266;SDS011;11802;53.160;8.214;2022-10-31T14:17:58;33.20;;;21.87;;
23266;SDS011;11802;53.160;8.214;2022-10-31T14:28:51;33.97;;;23.50;;
23266;SDS011;11802;53.160;8.214;2022-10-31T14:31:37;37.93;;;24.97;;
23266;SDS011;11802;53.160;8.214;2022-10-31T14:39:26;38.57;;;26.93;;
23266;SDS011;11802;53.160;8.214;2022-10-31T14:42:29;40.80;;;26.27;;
23266;SDS011;11802;53.160;8.214;2022-10-31T14:48:18;50.17;;;30.97;;
23266;SDS011;11802;53.160;8.214;2022-10-31T14:50:57;44.20;;;28.33;;
23266;SDS011;11802;53.160;8.214;2022-10-31T14:53:30;44.13;;;30.20;;
23266;SDS011;11802;53.160;8.214;2022-10-31T14:55:58;44.80;;;30.53;;
23266;SDS011;11802;53.160;8.214;2022-10-31T15:00:59;47.30;;;30.10;;
23266;SDS011;11802;53.160;8.214;2022-10-31T15:05:59;45.27;;;31.53;;
23266;SDS011;11802;53.160;8.214;2022-10-31T15:08:33;46.20;;;31.00;;
23266;SDS011;11802;53.160;8.214;2022-10-31T15:11:19;51.47;;;31.57;;
23266;SDS011;11802;53.160;8.214;2022-10-31T15:13:56;44.60;;;29.73;;
23266;SDS011;11802;53.160;8.214;2022-10-31T15:16:27;46.53;;;29.83;;
23266;SDS011;11802;53.160;8.214;2022-10-31T15:19:02;48.53;;;30.53;;
23266;SDS011;11802;53.160;8.214;2022-10-31T15:21:30;45.67;;;29.33;;
23266;SDS011;11802;53.160;8.214;2022-10-31T15:23:58;51.27;;;29.63;;
23266;SDS011;11802;53.160;8.214;2022-10-31T15:26:27;48.53;;;30.80;;
23266;SDS011;11802;53.160;8.214;2022-10-31T15:29:01;50.87;;;30.97;;
23266;SDS011;11802;53.160;8.214;2022-10-31T15:31:29;45.47;;;30.47;;
23266;SDS011;11802;53.160;8.214;2022-10-31T15:33:56;48.20;;;31.07;;
23266;SDS011;11802;53.160;8.214;2022-10-31T15:36:26;49.03;;;30.00;;
23266;SDS011;11802;53.160;8.214;2022-10-31T15:38:51;51.37;;;29.57;;
23266;SDS011;11802;53.160;8.214;2022-10-31T15:41:19;53.40;;;31.47;;
23266;SDS011;11802;53.160;8.214;2022-10-31T15:43:52;47.57;;;28.10;;
23266;SDS011;11802;53.160;8.214;2022-10-31T15:46:19;50.77;;;30.37;;
23266;SDS011;11802;53.160;8.214;2022-10-31T15:48:45;49.97;;;31.37;;
23266;SDS011;11802;53.160;8.214;2022-10-31T15:51:12;47.43;;;29.93;;
23266;SDS011;11802;53.160;8.214;2022-10-31T15:53:42;46.03;;;28.77;;
23266;SDS011;11802;53.160;8.214;2022-10-31T15:56:18;40.30;;;27.93;;
23266;SDS011;11802;53.160;8.214;2022-10-31T15:58:47;45.40;;;28.40;;
23266;SDS011;11802;53.160;8.214;2022-10-31T16:01:33;46.60;;;28.73;;
23266;SDS011;11802;53.160;8.214;2022-10-31T16:04:00;52.87;;;29.90;;
23266;SDS011;11802;53.160;8.214;2022-10-31T16:06:29;46.07;;;29.57;;
23266;SDS011;11802;53.160;8.214;2022-10-31T16:08:55;42.93;;;28.23;;
23266;SDS011;11802;53.160;8.214;2022-10-31T16:11:27;49.63;;;27.83;;
23266;SDS011;11802;53.160;8.214;2022-10-31T16:14:13;49.77;;;28.37;;
23266;SDS011;11802;53.160;8.214;2022-10-31T16:16:43;54.33;;;30.57;;
23266;SDS011;11802;53.160;8.214;2022-10-31T16:21:46;52.73;;;29.37;;
23266;SDS011;11802;53.160;8.214;2022-10-31T16:26:46;57.63;;;31.97;;
23266;SDS011;11802;53.160;8.214;2022-10-31T16:35:38;55.83;;;31.60;;
23266;SDS011;11802;53.160;8.214;2022-10-31T16:38:03;57.23;;;32.87;;
23266;SDS011;11802;53.160;8.214;2022-10-31T16:40:30;57.77;;;33.37;;
23266;SDS011;11802;53.160;8.214;2022-10-31T16:42:56;60.73;;;33.47;;
23266;SDS011;11802;53.160;8.214;2022-10-31T16:45:24;53.60;;;31.73;;
23266;SDS011;11802;53.160;8.214;2022-10-31T16:47:51;50.37;;;30.07;;
23266;SDS011;11802;53.160;8.214;2022-10-31T16:50:21;55.20;;;31.43;;